createdAt,value
2022-10-21T00:00:43.192Z,13.66
2022-10-21T00:01:43.194Z,13.65
2022-10-21T00:02:43.192Z,13.65
2022-10-21T00:03:43.216Z,13.65
2022-10-21T00:04:43.261Z,13.64
2022-10-21T00:05:43.193Z,13.63
2022-10-21T00:06:43.208Z,13.64
2022-10-21T00:07:43.193Z,13.66
2022-10-21T00:08:43.225Z,13.66
2022-10-21T00:09:43.244Z,13.69
2022-10-21T00:10:43.215Z,13.66
2022-10-21T00:11:43.197Z,13.65
2022-10-21T00:12:43.201Z,13.64
2022-10-21T00:13:43.192Z,13.62
2022-10-21T00:14:43.213Z,13.59
2022-10-21T00:15:43.241Z,13.58
2022-10-21T00:16:43.232Z,13.56
2022-10-21T00:17:43.208Z,13.53
2022-10-21T00:18:43.212Z,13.50
2022-10-21T00:19:43.216Z,13.49
2022-10-21T00:20:43.229Z,13.49
2022-10-21T00:21:43.220Z,13.51
2022-10-21T00:22:43.220Z,13.54
2022-10-21T00:23:43.228Z,13.54
2022-10-21T00:24:43.212Z,13.53
2022-10-21T00:25:43.237Z,13.53
2022-10-21T00:26:43.225Z,13.53
2022-10-21T00:27:43.252Z,13.51
2022-10-21T00:28:43.268Z,13.50
2022-10-21T00:29:43.222Z,13.49
2022-10-21T00:30:43.237Z,13.47
2022-10-21T00:31:43.292Z,13.45
2022-10-21T00:32:43.229Z,13.43
2022-10-21T00:33:43.289Z,13.43
2022-10-21T00:34:43.293Z,13.42
2022-10-21T00:35:43.241Z,13.41
2022-10-21T00:36:43.257Z,13.43
2022-10-21T00:37:43.252Z,13.42
2022-10-21T00:38:43.251Z,13.43
2022-10-21T00:39:43.244Z,13.44
2022-10-21T00:40:43.269Z,13.45
2022-10-21T00:41:43.224Z,13.46
2022-10-21T00:42:46.488Z,13.46
2022-10-21T00:43:43.252Z,13.49
2022-10-21T00:44:43.225Z,13.54
2022-10-21T00:45:43.241Z,13.56
2022-10-21T00:46:43.260Z,13.58
2022-10-21T00:47:43.269Z,13.63
2022-10-21T00:48:43.292Z,13.64
2022-10-21T00:49:43.245Z,13.66
2022-10-21T00:50:43.266Z,13.69
2022-10-21T00:51:43.282Z,13.70
2022-10-21T00:52:43.257Z,13.71
2022-10-21T00:53:43.265Z,13.72
2022-10-21T00:54:43.233Z,13.74
2022-10-21T00:55:43.280Z,13.75
2022-10-21T00:56:43.291Z,13.75
2022-10-21T00:57:43.264Z,13.74
2022-10-21T00:58:43.274Z,13.74
2022-10-21T00:59:43.316Z,13.72
2022-10-21T01:00:43.342Z,13.71
2022-10-21T01:01:43.321Z,13.69
2022-10-21T01:02:43.285Z,13.69
2022-10-21T01:03:43.290Z,13.69
2022-10-21T01:04:43.303Z,13.70
2022-10-21T01:05:43.317Z,13.70
2022-10-21T01:06:43.313Z,13.70
2022-10-21T01:07:43.829Z,13.72
2022-10-21T01:08:43.326Z,13.73
2022-10-21T01:09:43.341Z,13.74
2022-10-21T01:10:43.292Z,13.74
2022-10-21T01:11:43.290Z,13.75
2022-10-21T01:12:43.286Z,13.74
2022-10-21T01:13:43.266Z,13.74
2022-10-21T01:14:43.272Z,13.76
2022-10-21T01:15:43.301Z,13.75
2022-10-21T01:16:45.780Z,13.75
2022-10-21T01:17:45.436Z,13.73
2022-10-21T01:18:43.286Z,13.75
2022-10-21T01:19:43.333Z,13.77
2022-10-21T01:20:43.329Z,13.78
2022-10-21T01:21:43.311Z,13.80
2022-10-21T01:22:43.280Z,13.79
2022-10-21T01:23:43.277Z,13.78
2022-10-21T01:24:43.270Z,13.80
2022-10-21T01:25:43.341Z,13.82
2022-10-21T01:26:43.321Z,13.82
2022-10-21T01:27:43.285Z,13.83
2022-10-21T01:28:43.282Z,13.85
2022-10-21T01:29:43.301Z,13.84
2022-10-21T01:30:43.346Z,13.86
2022-10-21T01:31:43.344Z,13.86
2022-10-21T01:32:43.301Z,13.84
2022-10-21T01:33:43.305Z,13.83
2022-10-21T01:34:43.314Z,13.83
2022-10-21T01:35:43.298Z,13.82
2022-10-21T01:36:43.331Z,13.80
2022-10-21T01:37:43.421Z,13.78
2022-10-21T01:38:43.293Z,13.78
2022-10-21T01:39:43.317Z,13.76
2022-10-21T01:40:43.445Z,13.76
2022-10-21T01:41:43.310Z,13.77
2022-10-21T01:42:43.314Z,13.75
2022-10-21T01:43:43.325Z,13.75
2022-10-21T01:44:43.329Z,13.74
2022-10-21T01:45:43.332Z,13.74
2022-10-21T01:46:43.320Z,13.74
2022-10-21T01:47:43.322Z,13.75
2022-10-21T01:48:43.369Z,13.74
2022-10-21T01:49:43.318Z,13.74
2022-10-21T01:50:43.353Z,13.75
2022-10-21T01:51:43.335Z,13.74
2022-10-21T01:52:43.313Z,13.73
2022-10-21T01:53:43.321Z,13.76
2022-10-21T01:54:43.371Z,13.74
2022-10-21T01:55:43.338Z,13.76
2022-10-21T01:56:43.306Z,13.75
2022-10-21T01:57:43.325Z,13.74
2022-10-21T01:58:43.343Z,13.74
2022-10-21T01:59:43.326Z,13.73
2022-10-21T02:00:43.374Z,13.71
2022-10-21T02:01:43.374Z,13.71
2022-10-21T02:02:43.310Z,13.73
2022-10-21T02:03:43.362Z,13.72
2022-10-21T02:04:43.346Z,13.72
2022-10-21T02:05:43.329Z,13.73
2022-10-21T02:06:43.325Z,13.73
2022-10-21T02:07:43.355Z,13.70
2022-10-21T02:08:43.398Z,13.71
2022-10-21T02:09:43.342Z,13.72
2022-10-21T02:10:43.331Z,13.72
2022-10-21T02:11:43.333Z,13.72
2022-10-21T02:12:43.338Z,13.73
2022-10-21T02:13:43.406Z,13.73
2022-10-21T02:14:43.338Z,13.72
2022-10-21T02:15:43.402Z,13.72
2022-10-21T02:16:43.387Z,13.71
2022-10-21T02:17:43.365Z,13.69
2022-10-21T02:18:43.362Z,13.69
2022-10-21T02:19:43.407Z,13.67
2022-10-21T02:20:43.329Z,13.65
2022-10-21T02:21:43.350Z,13.64
2022-10-21T02:22:43.361Z,13.63
2022-10-21T02:23:43.358Z,13.63
2022-10-21T02:24:43.401Z,13.61
2022-10-21T02:25:43.413Z,13.62
2022-10-21T02:26:43.370Z,13.61
2022-10-21T02:27:43.366Z,13.63
2022-10-21T02:28:43.393Z,13.64
2022-10-21T02:29:43.372Z,13.64
2022-10-21T02:30:43.400Z,13.64
2022-10-21T02:31:43.349Z,13.65
2022-10-21T02:32:43.420Z,13.65
2022-10-21T02:33:43.363Z,13.66
2022-10-21T02:34:43.435Z,13.67
2022-10-21T02:35:43.374Z,13.68
2022-10-21T02:36:43.355Z,13.68
2022-10-21T02:37:43.379Z,13.68
2022-10-21T02:38:43.354Z,13.69
2022-10-21T02:39:43.358Z,13.70
2022-10-21T02:40:43.413Z,13.70
2022-10-21T02:41:43.372Z,13.65
2022-10-21T02:42:43.369Z,13.63
2022-10-21T02:43:43.379Z,13.61
2022-10-21T02:44:43.362Z,13.59
2022-10-21T02:45:43.422Z,13.57
2022-10-21T02:46:43.369Z,13.56
2022-10-21T02:47:43.422Z,13.57
2022-10-21T02:48:43.380Z,13.57
2022-10-21T02:49:43.422Z,13.59
2022-10-21T02:50:43.370Z,13.61
2022-10-21T02:51:43.450Z,13.64
2022-10-21T02:52:43.382Z,13.68
2022-10-21T02:53:43.382Z,13.70
2022-10-21T02:54:43.434Z,13.73
2022-10-21T02:55:43.410Z,13.78
2022-10-21T02:56:43.398Z,13.84
2022-10-21T02:57:43.400Z,13.88
2022-10-21T02:58:43.398Z,13.90
2022-10-21T02:59:43.378Z,13.93
2022-10-21T03:00:43.450Z,13.92
2022-10-21T03:01:43.402Z,13.94
2022-10-21T03:02:43.442Z,13.99
2022-10-21T03:03:43.402Z,13.99
2022-10-21T03:04:43.386Z,14.00
2022-10-21T03:05:43.394Z,14.02
2022-10-21T03:06:43.431Z,14.05
2022-10-21T03:07:43.419Z,14.04
2022-10-21T03:08:43.426Z,14.05
2022-10-21T03:09:43.430Z,14.06
2022-10-21T03:10:43.407Z,14.05
2022-10-21T03:11:43.414Z,14.05
2022-10-21T03:12:43.447Z,14.04
2022-10-21T03:13:43.410Z,14.04
2022-10-21T03:14:43.406Z,14.04
2022-10-21T03:15:43.410Z,14.05
2022-10-21T03:16:43.402Z,14.06
2022-10-21T03:17:43.414Z,14.07
2022-10-21T03:18:43.402Z,14.07
2022-10-21T03:19:43.417Z,14.07
2022-10-21T03:20:43.451Z,14.06
2022-10-21T03:21:43.398Z,14.05
2022-10-21T03:22:43.424Z,14.08
2022-10-21T03:23:43.438Z,14.07
2022-10-21T03:24:43.462Z,14.07
2022-10-21T03:25:43.445Z,14.08
2022-10-21T03:26:43.418Z,14.09
2022-10-21T03:27:43.418Z,14.07
2022-10-21T03:28:43.439Z,14.07
2022-10-21T03:29:43.418Z,14.06
2022-10-21T03:30:43.426Z,14.06
2022-10-21T03:31:43.442Z,14.06
2022-10-21T03:32:43.422Z,14.05
2022-10-21T03:33:43.454Z,14.05
2022-10-21T03:34:43.429Z,14.06
2022-10-21T03:35:43.474Z,14.04
2022-10-21T03:36:43.475Z,14.03
2022-10-21T03:37:43.446Z,14.04
2022-10-21T03:38:43.470Z,14.02
2022-10-21T03:39:43.454Z,14.01
2022-10-21T03:40:43.442Z,14.02
2022-10-21T03:41:43.443Z,14.01
2022-10-21T03:42:43.481Z,14.00
2022-10-21T03:43:43.497Z,13.97
2022-10-21T03:44:43.450Z,13.97
2022-10-21T03:45:43.430Z,13.95
2022-10-21T03:46:43.473Z,13.96
2022-10-21T03:47:43.430Z,13.96
2022-10-21T03:48:43.460Z,13.96
2022-10-21T03:49:43.458Z,13.96
2022-10-21T03:50:43.470Z,13.97
2022-10-21T03:52:13.778Z,0.00
2022-10-21T03:53:24.393Z,0.00
2022-10-21T03:54:13.786Z,0.00
2022-10-21T03:55:13.814Z,0.00
2022-10-21T03:56:13.839Z,0.00
2022-10-21T03:57:13.810Z,0.00
2022-10-21T03:58:13.815Z,0.00
2022-10-21T03:59:13.855Z,0.00
2022-10-21T04:00:13.882Z,0.00
2022-10-21T04:01:13.860Z,0.00
2022-10-21T04:02:13.796Z,0.00
2022-10-21T04:03:14.186Z,0.00
2022-10-21T04:04:13.817Z,0.00
2022-10-21T04:05:13.811Z,0.00
2022-10-21T04:07:13.855Z,0.00
2022-10-21T04:08:13.819Z,0.00
2022-10-21T04:09:13.902Z,0.00
2022-10-21T04:10:13.875Z,0.00
2022-10-21T04:11:13.844Z,0.00
2022-10-21T04:12:13.858Z,0.00
2022-10-21T04:13:13.864Z,0.00
2022-10-21T04:14:15.458Z,0.00
2022-10-21T04:15:13.853Z,0.00
2022-10-21T04:16:13.882Z,0.00
2022-10-21T04:17:13.839Z,0.00
2022-10-21T04:18:13.851Z,0.00
2022-10-21T04:19:13.866Z,0.00
2022-10-21T04:20:13.856Z,0.00
2022-10-21T04:21:13.931Z,0.00
2022-10-21T04:22:13.859Z,0.00
2022-10-21T04:23:13.874Z,0.00
2022-10-21T04:24:13.867Z,0.00
2022-10-21T04:25:13.862Z,0.00
2022-10-21T04:26:13.913Z,0.00
2022-10-21T04:27:13.851Z,0.00
2022-10-21T04:28:13.994Z,0.00
2022-10-21T04:29:13.999Z,0.00
2022-10-21T04:30:14.031Z,0.00
2022-10-21T04:31:14.043Z,0.00
2022-10-21T04:32:13.999Z,0.00
2022-10-21T04:33:14.047Z,0.00
2022-10-21T04:34:14.052Z,0.00
2022-10-21T04:35:14.094Z,0.00
2022-10-21T04:36:14.099Z,0.00
2022-10-21T04:37:14.075Z,0.00
2022-10-21T04:38:14.135Z,0.00
2022-10-21T04:39:14.136Z,0.00
2022-10-21T04:40:14.124Z,0.00
2022-10-21T04:41:14.155Z,0.00
2022-10-21T04:42:14.274Z,0.00
2022-10-21T04:43:14.176Z,0.00
2022-10-21T04:44:14.188Z,0.00
2022-10-21T04:45:14.219Z,0.00
2022-10-21T04:46:14.214Z,0.00
2022-10-21T04:47:14.215Z,0.00
2022-10-21T04:48:14.199Z,0.00
2022-10-21T04:49:14.255Z,0.00
2022-10-21T04:50:14.355Z,0.00
2022-10-21T04:51:14.336Z,0.00
2022-10-21T04:52:14.375Z,0.00
2022-10-21T04:53:14.375Z,0.00
2022-10-21T04:54:14.381Z,0.00
2022-10-21T04:55:14.379Z,0.00
2022-10-21T04:56:14.344Z,0.00
2022-10-21T04:57:14.379Z,0.00
2022-10-21T04:58:18.249Z,0.00
2022-10-21T04:59:14.391Z,0.00
2022-10-21T05:00:14.375Z,0.00
2022-10-21T05:01:14.429Z,0.00
2022-10-21T05:02:14.391Z,0.00
2022-10-21T05:03:14.379Z,0.00
2022-10-21T05:04:14.359Z,0.00
2022-10-21T05:05:14.426Z,0.00
2022-10-21T05:06:14.399Z,0.00
2022-10-21T05:07:14.388Z,0.00
2022-10-21T05:08:14.412Z,0.00
2022-10-21T05:09:14.519Z,0.00
2022-10-21T05:10:14.375Z,0.00
2022-10-21T05:11:14.389Z,0.00
2022-10-21T05:12:14.391Z,0.00
2022-10-21T05:13:14.404Z,0.00
2022-10-21T05:14:16.572Z,0.00
2022-10-21T05:15:14.399Z,0.00
2022-10-21T05:16:14.400Z,0.00
2022-10-21T05:17:14.413Z,0.00
2022-10-21T05:18:14.418Z,0.00
2022-10-21T05:19:14.405Z,0.00
2022-10-21T05:20:14.407Z,0.00
2022-10-21T05:21:14.375Z,0.00
2022-10-21T05:22:14.364Z,0.00
2022-10-21T05:23:14.404Z,0.00
2022-10-21T05:24:14.364Z,0.00
2022-10-21T05:25:14.408Z,0.00
2022-10-21T05:26:14.376Z,0.00
2022-10-21T05:27:14.386Z,0.00
2022-10-21T05:28:14.435Z,0.00
2022-10-21T05:29:14.446Z,0.00
2022-10-21T05:30:14.427Z,0.00
2022-10-21T05:31:14.461Z,0.00
2022-10-21T05:32:14.424Z,0.00
2022-10-21T05:33:14.423Z,0.00
2022-10-21T05:34:14.422Z,0.00
2022-10-21T05:35:14.452Z,0.00
2022-10-21T05:36:14.450Z,0.00
2022-10-21T05:37:14.440Z,0.00
2022-10-21T05:38:14.394Z,0.00
2022-10-21T05:39:14.437Z,0.00
2022-10-21T05:40:14.397Z,0.00
2022-10-21T05:41:14.428Z,0.00
2022-10-21T05:42:14.437Z,0.00
2022-10-21T05:43:14.430Z,0.00
2022-10-21T05:44:14.440Z,0.00
2022-10-21T05:45:14.436Z,0.00
2022-10-21T05:46:14.452Z,0.00
2022-10-21T05:47:14.449Z,0.00
2022-10-21T05:48:17.859Z,0.00
2022-10-21T05:49:14.463Z,0.00
2022-10-21T05:50:14.483Z,0.00
2022-10-21T05:51:14.444Z,0.00
2022-10-21T05:52:14.448Z,0.00
2022-10-21T05:53:14.440Z,0.00
2022-10-21T05:54:14.423Z,0.00
2022-10-21T05:55:14.463Z,0.00
2022-10-21T05:56:14.454Z,0.00
2022-10-21T05:57:14.461Z,0.00
2022-10-21T05:58:14.449Z,0.00
2022-10-21T05:59:14.440Z,0.00
2022-10-21T06:00:14.408Z,0.00
2022-10-21T06:01:14.534Z,0.00
2022-10-21T06:02:14.444Z,0.00
2022-10-21T06:03:14.421Z,0.00
2022-10-21T06:04:14.453Z,0.00
2022-10-21T06:05:14.472Z,0.00
2022-10-21T06:06:14.453Z,0.00
2022-10-21T06:07:14.481Z,0.00
2022-10-21T06:08:14.454Z,0.00
2022-10-21T06:09:14.504Z,0.00
2022-10-21T06:10:14.482Z,0.00
2022-10-21T06:11:14.460Z,0.00
2022-10-21T06:12:14.477Z,0.00
2022-10-21T06:13:14.462Z,0.00
2022-10-21T06:14:14.473Z,0.00
2022-10-21T06:15:14.453Z,0.00
2022-10-21T06:16:14.479Z,0.00
2022-10-21T06:17:14.459Z,0.00
2022-10-21T06:18:14.466Z,0.00
2022-10-21T06:19:14.472Z,0.00
2022-10-21T06:20:14.467Z,0.00
2022-10-21T06:21:14.471Z,0.00
2022-10-21T06:22:14.481Z,0.00
2022-10-21T06:23:14.489Z,0.00
2022-10-21T06:24:14.493Z,0.00
2022-10-21T06:25:14.535Z,0.00
2022-10-21T06:26:14.559Z,0.00
2022-10-21T06:27:14.551Z,0.00
2022-10-21T06:28:14.551Z,0.00
2022-10-21T06:29:14.560Z,0.00
2022-10-21T06:30:14.567Z,0.00
2022-10-21T06:31:14.563Z,0.00
2022-10-21T06:32:14.608Z,0.00
2022-10-21T06:33:14.607Z,0.00
2022-10-21T06:34:14.634Z,0.00
2022-10-21T06:35:14.647Z,0.00
2022-10-21T06:36:14.651Z,0.00
2022-10-21T06:37:14.654Z,0.00
2022-10-21T06:38:14.626Z,0.00
2022-10-21T06:39:14.674Z,0.00
2022-10-21T06:40:14.955Z,0.00
2022-10-21T06:41:14.688Z,0.00
2022-10-21T06:42:14.715Z,0.00
2022-10-21T06:43:14.734Z,0.00
2022-10-21T06:44:14.722Z,0.00
2022-10-21T06:45:14.779Z,0.00
2022-10-21T06:46:14.771Z,0.00
2022-10-21T06:47:14.746Z,0.00
2022-10-21T06:48:14.796Z,0.00
2022-10-21T06:49:14.800Z,0.00
2022-10-21T06:50:14.828Z,0.00
2022-10-21T06:51:14.842Z,0.00
2022-10-21T06:52:14.901Z,0.00
2022-10-21T06:53:14.820Z,0.00
2022-10-21T06:54:14.860Z,0.00
2022-10-21T06:55:14.886Z,0.00
2022-10-21T06:56:14.850Z,0.00
2022-10-21T06:57:14.851Z,0.00
2022-10-21T06:58:14.903Z,0.00
2022-10-21T06:59:14.873Z,0.00
2022-10-21T07:00:14.996Z,0.00
2022-10-21T07:01:27.509Z,0.00
2022-10-21T07:02:14.955Z,0.00
2022-10-21T07:03:14.944Z,0.00
2022-10-21T07:04:14.954Z,0.00
2022-10-21T07:05:14.922Z,0.00
2022-10-21T07:06:14.914Z,0.00
2022-10-21T07:07:14.945Z,0.00
2022-10-21T07:08:14.956Z,0.00
2022-10-21T07:09:14.968Z,0.00
2022-10-21T07:10:14.988Z,0.00
2022-10-21T07:11:14.964Z,0.00
2022-10-21T07:12:14.968Z,0.00
2022-10-21T07:13:14.969Z,0.00
2022-10-21T07:14:14.963Z,0.00
2022-10-21T07:15:15.003Z,0.00
2022-10-21T07:16:14.944Z,0.00
2022-10-21T07:17:14.980Z,0.00
2022-10-21T07:18:14.970Z,0.00
2022-10-21T07:19:14.950Z,0.00
2022-10-21T07:20:14.952Z,0.00
2022-10-21T07:21:14.942Z,0.00
2022-10-21T07:22:14.938Z,0.00
2022-10-21T07:23:14.955Z,0.00
2022-10-21T07:24:17.655Z,0.00
2022-10-21T07:25:14.970Z,0.00
2022-10-21T07:26:14.946Z,0.00
2022-10-21T07:27:14.934Z,0.00
2022-10-21T07:28:14.971Z,0.00
2022-10-21T07:29:14.955Z,0.00
2022-10-21T07:30:14.965Z,0.00
2022-10-21T07:31:14.930Z,0.00
2022-10-21T07:32:14.964Z,0.00
2022-10-21T07:33:14.957Z,0.00
2022-10-21T07:34:14.944Z,0.00
2022-10-21T07:35:14.937Z,0.00
2022-10-21T07:36:14.958Z,0.00
2022-10-21T07:37:14.934Z,0.00
2022-10-21T07:38:14.945Z,0.00
2022-10-21T07:39:14.944Z,0.00
2022-10-21T07:40:14.940Z,0.00
2022-10-21T07:41:14.953Z,0.00
2022-10-21T07:42:14.951Z,0.00
2022-10-21T07:44:14.950Z,0.00
2022-10-21T07:45:14.983Z,0.00
2022-10-21T07:46:14.950Z,0.00
2022-10-21T07:47:14.966Z,0.00
2022-10-21T07:48:14.947Z,0.00
2022-10-21T07:49:14.956Z,0.00
2022-10-21T07:50:14.974Z,0.00
2022-10-21T07:51:14.974Z,0.00
2022-10-21T07:53:15.350Z,0.00
2022-10-21T07:54:14.957Z,0.00
2022-10-21T07:55:15.044Z,0.00
2022-10-21T07:56:14.964Z,0.00
2022-10-21T07:57:14.962Z,0.00
2022-10-21T07:58:14.954Z,0.00
2022-10-21T07:59:14.963Z,0.00
2022-10-21T08:00:14.970Z,0.00
2022-10-21T08:01:14.987Z,0.00
2022-10-21T08:02:14.973Z,0.00
2022-10-21T08:03:14.947Z,0.00
2022-10-21T08:04:14.968Z,0.00
2022-10-21T08:05:14.999Z,0.00
2022-10-21T08:06:14.981Z,0.00
2022-10-21T08:07:14.976Z,0.00
2022-10-21T08:08:14.994Z,0.00
2022-10-21T08:09:15.022Z,0.00
2022-10-21T08:10:14.975Z,0.00
2022-10-21T08:11:14.971Z,0.00
2022-10-21T08:12:15.482Z,0.00
2022-10-21T08:13:14.979Z,0.00
2022-10-21T08:14:14.985Z,0.00
2022-10-21T08:15:14.984Z,0.00
2022-10-21T08:16:14.981Z,0.00
2022-10-21T08:17:14.994Z,0.00
2022-10-21T08:18:14.978Z,0.00
2022-10-21T08:19:14.986Z,0.00
2022-10-21T08:20:14.990Z,0.00
2022-10-21T08:21:14.986Z,0.00
2022-10-21T08:22:14.991Z,0.00
2022-10-21T08:23:14.994Z,0.00
2022-10-21T08:24:14.994Z,0.00
2022-10-21T08:25:15.064Z,0.00
2022-10-21T08:26:14.998Z,0.00
2022-10-21T08:27:15.004Z,0.00
2022-10-21T08:28:14.992Z,0.00
2022-10-21T08:29:15.023Z,0.00
2022-10-21T08:30:15.004Z,0.00
2022-10-21T08:31:15.004Z,0.00
2022-10-21T08:32:15.011Z,0.00
2022-10-21T08:33:15.010Z,0.00
2022-10-21T08:34:15.080Z,0.00
2022-10-21T08:35:15.102Z,0.00
2022-10-21T08:36:15.076Z,0.00
2022-10-21T08:37:15.089Z,0.00
2022-10-21T08:38:15.081Z,0.00
2022-10-21T08:39:15.088Z,0.00
2022-10-21T08:40:15.101Z,0.00
2022-10-21T08:41:15.087Z,0.00
2022-10-21T08:42:15.117Z,0.00
2022-10-21T08:43:15.093Z,0.00
2022-10-21T08:44:15.120Z,0.00
2022-10-21T08:45:15.224Z,0.00
2022-10-21T08:46:15.216Z,0.00
2022-10-21T08:47:15.235Z,0.00
2022-10-21T08:48:15.212Z,0.00
2022-10-21T08:49:15.236Z,0.00
2022-10-21T08:50:15.219Z,0.00
2022-10-21T08:51:15.228Z,0.00
2022-10-21T08:52:15.210Z,0.00
2022-10-21T08:53:15.211Z,0.00
2022-10-21T08:54:15.221Z,0.00
2022-10-21T08:55:15.236Z,0.00
2022-10-21T08:56:19.536Z,0.00
2022-10-21T08:57:15.255Z,0.00
2022-10-21T08:58:16.322Z,0.00
2022-10-21T08:59:15.253Z,0.00
2022-10-21T09:00:15.245Z,0.00
2022-10-21T09:01:15.249Z,0.00
2022-10-21T09:02:15.275Z,0.00
2022-10-21T09:03:15.289Z,0.00
2022-10-21T09:04:15.261Z,0.00
2022-10-21T09:05:15.313Z,0.00
2022-10-21T09:06:15.261Z,0.00
2022-10-21T09:07:15.282Z,0.00
2022-10-21T09:08:15.252Z,0.00
2022-10-21T09:09:15.336Z,0.00
2022-10-21T09:10:15.266Z,0.00
2022-10-21T09:11:15.258Z,0.00
2022-10-21T09:12:15.266Z,0.00
2022-10-21T09:13:15.267Z,0.00
2022-10-21T09:14:15.336Z,0.00
2022-10-21T09:15:15.278Z,0.00
2022-10-21T09:16:15.272Z,0.00
2022-10-21T09:17:15.261Z,0.00
2022-10-21T09:18:15.282Z,0.00
2022-10-21T09:19:15.265Z,0.00
2022-10-21T09:20:15.286Z,0.00
2022-10-21T09:21:15.251Z,0.00
2022-10-21T09:22:34.292Z,0.00
2022-10-21T09:23:15.326Z,0.00
2022-10-21T09:24:15.333Z,0.00
2022-10-21T09:25:15.366Z,0.00
2022-10-21T09:26:15.307Z,0.00
2022-10-21T09:27:19.468Z,0.00
2022-10-21T09:28:15.272Z,0.00
2022-10-21T09:29:15.347Z,0.00
2022-10-21T09:30:15.280Z,0.00
2022-10-21T09:31:15.357Z,0.00
2022-10-21T09:32:15.353Z,0.00
2022-10-21T09:33:15.360Z,0.00
2022-10-21T09:34:15.359Z,0.00
2022-10-21T09:35:15.369Z,0.00
2022-10-21T09:36:15.302Z,0.00
2022-10-21T09:37:15.299Z,0.00
2022-10-21T09:38:15.273Z,0.00
2022-10-21T09:39:15.299Z,0.00
2022-10-21T09:40:15.376Z,0.00
2022-10-21T09:41:15.544Z,0.00
2022-10-21T09:42:29.543Z,0.00
2022-10-21T09:43:15.378Z,0.00
2022-10-21T09:44:15.367Z,0.00
2022-10-21T09:45:15.319Z,0.00
2022-10-21T09:46:15.394Z,0.00
2022-10-21T09:47:15.293Z,0.00
2022-10-21T09:48:15.305Z,0.00
2022-10-21T09:49:47.270Z,0.00
2022-10-21T09:50:15.387Z,0.00
2022-10-21T09:51:15.344Z,0.00
2022-10-21T09:52:15.314Z,0.00
2022-10-21T09:53:15.327Z,0.00
2022-10-21T09:54:15.342Z,0.00
2022-10-21T09:55:15.386Z,0.00
2022-10-21T09:56:15.326Z,0.00
2022-10-21T09:57:15.319Z,0.00
2022-10-21T09:58:15.395Z,0.00
2022-10-21T09:59:15.399Z,0.00
2022-10-21T10:00:15.409Z,0.00
2022-10-21T10:01:15.330Z,0.00
2022-10-21T10:02:15.427Z,0.00
2022-10-21T10:03:15.396Z,0.00
2022-10-21T10:04:15.403Z,0.00
2022-10-21T10:05:15.319Z,0.00
2022-10-21T10:06:15.318Z,0.00
2022-10-21T10:07:52.577Z,0.00
2022-10-21T10:08:52.598Z,0.00
2022-10-21T10:09:52.595Z,0.00
2022-10-21T10:10:52.598Z,0.00
2022-10-21T10:11:52.575Z,0.00
2022-10-21T10:12:52.558Z,0.00
2022-10-21T10:13:52.589Z,0.00
2022-10-21T10:14:52.578Z,0.00
2022-10-21T10:15:52.629Z,0.00
2022-10-21T10:16:52.591Z,0.00
2022-10-21T10:17:52.605Z,0.00
2022-10-21T10:18:52.571Z,0.00
2022-10-21T10:19:52.591Z,0.00
2022-10-21T10:20:52.599Z,0.00
2022-10-21T10:21:52.596Z,0.00
2022-10-21T10:22:52.590Z,0.00
2022-10-21T10:23:52.590Z,0.00
2022-10-21T10:24:52.599Z,0.00
2022-10-21T10:25:52.602Z,0.00
2022-10-21T10:26:52.607Z,0.00
2022-10-21T10:27:52.602Z,0.00
2022-10-21T10:28:52.602Z,0.00
2022-10-21T10:29:52.606Z,0.00
2022-10-21T10:30:52.585Z,0.00
2022-10-21T10:31:52.607Z,0.00
2022-10-21T10:32:52.610Z,0.00
2022-10-21T10:33:56.578Z,0.00
2022-10-21T10:34:52.603Z,0.00
2022-10-21T10:35:52.598Z,0.00
2022-10-21T10:36:52.602Z,0.00
2022-10-21T10:37:52.619Z,0.00
2022-10-21T10:38:52.606Z,0.00
2022-10-21T10:39:52.611Z,0.00
2022-10-21T10:40:55.248Z,0.00
2022-10-21T10:41:52.613Z,0.00
2022-10-21T10:42:52.622Z,0.00
2022-10-21T10:43:52.610Z,0.00
2022-10-21T10:44:52.612Z,0.00
2022-10-21T10:45:52.616Z,0.00
2022-10-21T10:46:52.640Z,0.00
2022-10-21T10:47:52.744Z,0.00
2022-10-21T10:48:52.774Z,0.00
2022-10-21T10:49:52.874Z,0.00
2022-10-21T10:50:52.865Z,0.00
2022-10-21T10:51:52.882Z,0.00
2022-10-21T10:52:52.915Z,0.00
2022-10-21T10:53:52.891Z,0.00
2022-10-21T10:54:52.904Z,0.00
2022-10-21T10:55:52.909Z,0.00
2022-10-21T10:56:52.914Z,0.00
2022-10-21T10:58:06.188Z,0.00
2022-10-21T10:58:52.954Z,0.00
2022-10-21T10:59:52.950Z,0.00
2022-10-21T11:00:53.022Z,0.00
2022-10-21T11:01:52.958Z,0.00
2022-10-21T11:02:52.987Z,0.00
2022-10-21T11:03:52.962Z,0.00
2022-10-21T11:05:52.967Z,0.00
2022-10-21T11:06:52.975Z,0.00
2022-10-21T11:07:52.998Z,0.00
2022-10-21T11:08:53.029Z,0.00
2022-10-21T11:09:52.972Z,0.00
2022-10-21T11:10:52.971Z,0.00
2022-10-21T11:11:52.978Z,0.00
2022-10-21T11:12:52.994Z,0.00
2022-10-21T11:13:53.029Z,0.00
2022-10-21T11:14:52.987Z,0.00
2022-10-21T11:15:53.016Z,0.00
2022-10-21T11:17:00.093Z,0.00
2022-10-21T11:17:52.983Z,0.00
2022-10-21T11:18:52.968Z,0.00
2022-10-21T11:19:52.985Z,0.00
2022-10-21T11:20:53.018Z,0.00
2022-10-21T11:21:52.999Z,0.00
2022-10-21T11:22:53.023Z,0.00
2022-10-21T11:23:55.554Z,0.00
2022-10-21T11:24:53.052Z,0.00
2022-10-21T11:25:53.039Z,0.00
2022-10-21T11:26:53.051Z,0.00
2022-10-21T11:27:53.033Z,0.00
2022-10-21T11:28:53.022Z,0.00
2022-10-21T11:29:53.020Z,0.00
2022-10-21T11:30:53.035Z,0.00
2022-10-21T11:32:06.670Z,0.00
2022-10-21T11:32:53.031Z,0.00
2022-10-21T11:33:53.035Z,0.00
2022-10-21T11:34:53.046Z,0.00
2022-10-21T11:35:57.373Z,0.00
2022-10-21T11:36:53.085Z,0.00
2022-10-21T11:37:53.053Z,0.00
2022-10-21T11:38:53.197Z,0.00
2022-10-21T11:39:53.050Z,0.00
2022-10-21T11:40:53.081Z,0.00
2022-10-21T11:41:53.044Z,0.00
2022-10-21T11:42:53.061Z,0.00
2022-10-21T11:43:53.047Z,0.00
2022-10-21T11:44:53.045Z,0.00
2022-10-21T11:45:53.079Z,0.00
2022-10-21T11:46:53.071Z,0.00
2022-10-21T11:47:53.054Z,0.00
2022-10-21T11:48:53.054Z,0.00
2022-10-21T11:49:53.090Z,0.00
2022-10-21T11:50:53.097Z,0.00
2022-10-21T11:51:53.089Z,0.00
2022-10-21T11:52:53.131Z,0.00
2022-10-21T11:53:53.101Z,0.00
2022-10-21T11:55:07.967Z,0.00
2022-10-21T11:55:53.108Z,0.00
2022-10-21T11:56:53.117Z,0.00
2022-10-21T11:57:53.125Z,0.00
2022-10-21T11:58:53.135Z,0.00
2022-10-21T11:59:55.320Z,0.00
2022-10-21T12:00:53.086Z,0.00
2022-10-21T12:01:53.163Z,0.00
2022-10-21T12:02:53.161Z,0.00
2022-10-21T12:03:53.085Z,0.00
2022-10-21T12:04:53.078Z,0.00
2022-10-21T12:05:53.329Z,0.00
2022-10-21T12:06:53.138Z,0.00
2022-10-21T12:07:53.113Z,0.00
2022-10-21T12:08:53.078Z,0.00
2022-10-21T12:09:53.090Z,0.00
2022-10-21T12:10:53.106Z,0.00
2022-10-21T12:11:53.121Z,0.00
2022-10-21T12:12:53.104Z,0.00
2022-10-21T12:13:53.109Z,0.00
2022-10-21T12:14:53.101Z,0.00
2022-10-21T12:15:53.121Z,0.00
2022-10-21T12:16:53.117Z,0.00
2022-10-21T12:17:53.131Z,0.00
2022-10-21T12:18:53.139Z,0.00
2022-10-21T12:19:53.125Z,0.00
2022-10-21T12:20:53.181Z,0.00
2022-10-21T12:21:53.201Z,0.00
2022-10-21T12:22:53.257Z,0.00
2022-10-21T12:23:53.227Z,0.00
2022-10-21T12:24:53.238Z,0.00
2022-10-21T12:25:53.217Z,0.00
2022-10-21T12:26:53.233Z,0.00
2022-10-21T12:27:53.304Z,0.00
2022-10-21T12:28:53.319Z,0.00
2022-10-21T12:29:53.294Z,0.00
2022-10-21T12:30:53.301Z,0.00
2022-10-21T12:31:53.308Z,0.00
2022-10-21T12:32:53.350Z,0.00
2022-10-21T12:33:53.325Z,0.00
2022-10-21T12:34:53.301Z,0.00
2022-10-21T12:35:53.387Z,0.00
2022-10-21T12:36:53.317Z,0.00
2022-10-21T12:37:53.317Z,0.00
2022-10-21T12:38:53.325Z,0.00
2022-10-21T12:39:53.319Z,0.00
2022-10-21T12:40:53.353Z,0.00
2022-10-21T12:41:53.342Z,0.00
2022-10-21T12:42:53.384Z,0.00
2022-10-21T12:43:53.505Z,0.00
2022-10-21T12:44:53.462Z,0.00
2022-10-21T12:45:53.447Z,0.00
2022-10-21T12:46:53.509Z,0.00
2022-10-21T12:47:53.470Z,0.00
2022-10-21T12:48:53.486Z,0.00
2022-10-21T12:49:53.566Z,0.00
2022-10-21T12:50:53.549Z,0.00
2022-10-21T12:51:53.565Z,0.00
2022-10-21T12:52:53.618Z,0.00
2022-10-21T12:53:53.596Z,0.00
2022-10-21T12:54:53.622Z,0.00
2022-10-21T12:55:53.618Z,0.00
2022-10-21T12:56:53.618Z,0.00
2022-10-21T12:57:53.613Z,0.00
2022-10-21T12:58:53.613Z,0.00
2022-10-21T12:59:53.634Z,0.00
2022-10-21T13:00:53.752Z,0.00
2022-10-21T13:01:53.693Z,0.00
2022-10-21T13:02:53.720Z,0.00
2022-10-21T13:03:53.686Z,0.00
2022-10-21T13:04:53.709Z,0.00
2022-10-21T13:05:53.677Z,0.00
2022-10-21T13:06:53.698Z,0.00
2022-10-21T13:07:53.790Z,0.00
2022-10-21T13:08:53.829Z,0.00
2022-10-21T13:09:53.801Z,0.00
2022-10-21T13:10:53.798Z,0.00
2022-10-21T13:11:53.826Z,0.00
2022-10-21T13:12:53.792Z,0.00
2022-10-21T13:13:53.836Z,0.00
2022-10-21T13:14:53.822Z,0.00
2022-10-21T13:15:53.843Z,0.00